Time;durP1;ratioP1;P1;durP2;ratioP2;P2;SDS_P1;SDS_P2;PMS_P1;PMS_P2;Temp;Humidity;BMP_temperature;BMP_pressure;BME280_temperature;BME280_humidity;BME280_pressure;Samples;Min_cycle;Max_cycle;Signal;HPM_P1;HPM_P2
2023/12/22 00:00:01;;;;;;;10.10;1.85;;;22.10;59.40;;;;;;5010667;28;20414;-84
2023/12/22 00:02:28;;;;;;;9.25;1.70;;;22.20;59.80;;;;;;5013676;28;20026;-80
2023/12/22 00:04:56;;;;;;;7.00;1.42;;;22.30;60.40;;;;;;5013733;28;20022;-83
2023/12/22 00:07:23;;;;;;;7.07;1.48;;;22.30;59.90;;;;;;5017262;28;20033;-81
2023/12/22 00:09:50;;;;;;;8.00;1.35;;;22.30;59.10;;;;;;5013779;28;20022;-83
2023/12/22 00:12:18;;;;;;;7.00;1.38;;;22.30;59.00;;;;;;5014031;28;20017;-84
2023/12/22 00:14:45;;;;;;;6.60;1.50;;;22.30;58.40;;;;;;5012560;28;20026;-81
2023/12/22 00:17:12;;;;;;;7.95;1.45;;;22.30;58.70;;;;;;5005262;28;20026;-82
2023/12/22 00:19:41;;;;;;;7.25;1.65;;;22.40;57.80;;;;;;5011606;28;20044;-78
2023/12/22 00:22:08;;;;;;;12.75;1.70;;;22.40;57.70;;;;;;5012302;28;20075;-78
2023/12/22 00:24:35;;;;;;;6.10;1.50;;;22.50;57.20;;;;;;5016545;28;20404;-84
2023/12/22 00:27:03;;;;;;;7.97;1.88;;;22.50;57.80;;;;;;5013609;28;20381;-85
2023/12/22 00:29:30;;;;;;;9.60;1.35;;;22.60;57.60;;;;;;5013797;28;20499;-82
2023/12/22 00:31:58;;;;;;;8.73;1.50;;;22.60;57.20;;;;;;5013248;28;20045;-78
2023/12/22 00:34:25;;;;;;;8.43;1.17;;;22.70;57.70;;;;;;5011408;28;20547;-84
2023/12/22 00:36:52;;;;;;;7.50;1.77;;;22.80;57.90;;;;;;5013426;28;20030;-86
2023/12/22 00:39:20;;;;;;;10.38;1.92;;;22.80;56.70;;;;;;5013433;28;20088;-78
2023/12/22 00:41:47;;;;;;;9.95;1.52;;;22.80;57.60;;;;;;5013286;28;20380;-83
2023/12/22 00:44:15;;;;;;;9.00;1.73;;;22.80;57.30;;;;;;5007028;28;20433;-81
2023/12/22 00:46:42;;;;;;;6.20;1.60;;;22.80;57.20;;;;;;4999140;28;20452;-80
2023/12/22 00:49:09;;;;;;;4.78;1.17;;;22.80;57.80;;;;;;5015974;28;20551;-81
2023/12/22 00:51:37;;;;;;;6.78;1.48;;;22.90;57.50;;;;;;5012695;28;20441;-83
2023/12/22 00:54:04;;;;;;;4.32;1.10;;;22.90;56.50;;;;;;5012215;28;20076;-86
2023/12/22 00:56:31;;;;;;;8.38;1.65;;;23.00;56.50;;;;;;5013172;28;20026;-84
2023/12/22 00:58:59;;;;;;;7.80;1.40;;;23.00;55.90;;;;;;5012824;28;20481;-80
2023/12/22 01:01:26;;;;;;;5.93;1.30;;;23.00;54.40;;;;;;5012427;28;20030;-79
2023/12/22 01:03:53;;;;;;;8.23;1.40;;;23.00;55.50;;;;;;5012215;28;20481;-81
2023/12/22 01:06:21;;;;;;;6.60;1.35;;;23.10;55.90;;;;;;5015077;28;20429;-78
2023/12/22 01:08:49;;;;;;;9.02;1.45;;;23.20;55.40;;;;;;5013080;28;20022;-78
2023/12/22 01:11:20;;;;;;;9.40;1.55;;;23.20;54.40;;;;;;5012691;28;20029;-82
2023/12/22 01:13:47;;;;;;;5.85;1.27;;;23.20;53.60;;;;;;5011732;28;20492;-84
2023/12/22 01:16:15;;;;;;;6.97;1.90;;;23.20;53.90;;;;;;5013087;28;20042;-83
2023/12/22 01:18:44;;;;;;;9.10;1.80;;;23.20;53.80;;;;;;5011672;28;20397;-80
2023/12/22 01:21:11;;;;;;;5.13;1.15;;;23.20;54.10;;;;;;5015980;28;20109;-80
2023/12/22 01:23:39;;;;;;;7.38;1.50;;;23.20;53.30;;;;;;5013026;28;20048;-81
2023/12/22 01:26:06;;;;;;;11.15;1.63;;;23.30;52.80;;;;;;5012409;28;20105;-78
2023/12/22 01:28:35;;;;;;;5.57;1.20;;;23.20;51.90;;;;;;5013008;28;20085;-82
2023/12/22 01:31:03;;;;;;;7.70;1.58;;;23.30;53.00;;;;;;5013134;28;20037;-85
2023/12/22 01:33:30;;;;;;;6.05;1.27;;;23.30;52.40;;;;;;5005011;28;20117;-80
2023/12/22 01:35:57;;;;;;;7.85;1.48;;;23.40;53.00;;;;;;5012124;28;20022;-79
2023/12/22 01:38:25;;;;;;;9.80;1.55;;;23.30;51.50;;;;;;5010574;28;20030;-81
2023/12/22 01:40:52;;;;;;;8.10;1.48;;;23.40;51.30;;;;;;4993239;28;20050;-79
2023/12/22 01:43:21;;;;;;;3.53;1.10;;;23.50;51.90;;;;;;5012005;28;20101;-81
2023/12/22 01:45:59;;;;;;;6.78;1.00;;;23.40;49.60;;;;;;5012492;28;20109;-84
2023/12/22 01:48:28;;;;;;;8.50;1.58;;;23.30;49.20;;;;;;5008779;28;20069;-84
2023/12/22 01:50:58;;;;;;;7.57;1.15;;;23.30;49.00;;;;;;5001903;28;20065;-86
2023/12/22 01:53:27;;;;;;;7.28;1.02;;;23.30;49.40;;;;;;5006340;28;20105;-83
2023/12/22 01:55:56;;;;;;;4.20;0.93;;;23.30;48.10;;;;;;5013871;28;20038;-81
2023/12/22 01:58:27;;;;;;;4.45;0.90;;;23.20;48.70;;;;;;5023319;28;20404;-84
2023/12/22 02:00:55;;;;;;;3.78;1.00;;;23.30;50.40;;;;;;5029917;28;20026;-87
2023/12/22 02:03:24;;;;;;;8.35;1.63;;;23.40;50.70;;;;;;5016012;28;20070;-79
2023/12/22 02:05:55;;;;;;;5.30;1.52;;;23.50;50.70;;;;;;5014475;28;20034;-82
2023/12/22 02:08:24;;;;;;;6.80;1.45;;;23.50;50.70;;;;;;5016192;28;20100;-83
2023/12/22 02:10:52;;;;;;;5.18;1.65;;;23.60;51.30;;;;;;5016663;28;20343;-85
2023/12/22 02:13:19;;;;;;;8.43;1.83;;;23.50;50.40;;;;;;5019165;28;20037;-81
2023/12/22 02:15:53;;;;;;;5.57;1.40;;;23.50;50.70;;;;;;5002034;28;20019;-84
2023/12/22 02:18:28;;;;;;;4.90;1.10;;;23.30;50.70;;;;;;5018942;28;20056;-84
2023/12/22 02:20:55;;;;;;;4.55;1.05;;;23.30;50.20;;;;;;5014790;28;20168;-81
2023/12/22 02:23:22;;;;;;;5.82;1.25;;;23.30;51.10;;;;;;5015807;28;20473;-84
2023/12/22 02:25:55;;;;;;;6.22;1.42;;;23.30;50.30;;;;;;5015602;28;20030;-83
2023/12/22 02:28:24;;;;;;;7.20;1.20;;;23.30;49.30;;;;;;5015817;28;20025;-82
2023/12/22 02:31:07;;;;;;;4.93;1.30;;;23.40;50.50;;;;;;5015879;28;20084;-80
2023/12/22 02:33:38;;;;;;;3.80;1.20;;;23.50;50.20;;;;;;5007741;28;20140;-80
2023/12/22 02:36:10;;;;;;;6.03;0.95;;;23.50;50.80;;;;;;5015522;28;20453;-82
2023/12/22 02:38:41;;;;;;;4.88;1.30;;;23.50;47.80;;;;;;5015416;28;20492;-82
2023/12/22 02:41:10;;;;;;;4.38;1.20;;;23.50;47.80;;;;;;5015605;28;20099;-81
2023/12/22 02:43:44;;;;;;;4.45;1.13;;;23.50;47.80;;;;;;5029791;28;20116;-83
2023/12/22 02:46:19;;;;;;;4.70;1.27;;;23.60;49.70;;;;;;5015170;28;20025;-78
2023/12/22 02:48:50;;;;;;;7.43;1.13;;;23.60;48.80;;;;;;5015285;28;20026;-79
2023/12/22 02:51:18;;;;;;;5.10;1.10;;;23.70;48.10;;;;;;5015036;28;20109;-82
2023/12/22 02:53:52;;;;;;;5.38;1.10;;;23.80;49.40;;;;;;5014757;28;20049;-81
2023/12/22 02:56:26;;;;;;;5.57;1.05;;;23.80;48.90;;;;;;5015031;28;20038;-82
2023/12/22 02:58:55;;;;;;;6.65;1.25;;;23.90;49.00;;;;;;5013988;28;20400;-84
2023/12/22 03:01:24;;;;;;;5.88;1.10;;;23.90;47.90;;;;;;5015178;28;20025;-83
2023/12/22 03:03:51;;;;;;;7.30;1.33;;;23.90;50.00;;;;;;5018172;28;20030;-81
2023/12/22 03:06:19;;;;;;;5.82;1.17;;;23.90;50.90;;;;;;5014874;28;20034;-80
2023/12/22 03:08:46;;;;;;;6.95;1.40;;;24.00;49.50;;;;;;5014967;28;20026;-86
2023/12/22 03:11:14;;;;;;;5.38;1.33;;;24.00;49.40;;;;;;5014914;28;20064;-85
2023/12/22 03:13:49;;;;;;;6.63;1.52;;;24.00;48.70;;;;;;5014831;28;20041;-87
2023/12/22 03:16:17;;;;;;;6.25;1.40;;;24.00;48.30;;;;;;5004436;28;20099;-78
2023/12/22 03:18:45;;;;;;;3.13;0.88;;;24.00;48.90;;;;;;5012699;28;20096;-83
2023/12/22 03:21:19;;;;;;;5.53;1.40;;;24.00;49.00;;;;;;5014476;28;20018;-83
2023/12/22 03:23:47;;;;;;;6.97;1.35;;;24.00;48.60;;;;;;5014111;28;20080;-85
2023/12/22 03:26:15;;;;;;;5.68;1.27;;;24.00;48.30;;;;;;5014213;28;20022;-84
2023/12/22 03:28:42;;;;;;;2.75;1.42;;;24.00;49.10;;;;;;5013298;28;20029;-86
2023/12/22 03:31:10;;;;;;;5.93;1.30;;;24.10;48.10;;;;;;5014154;28;20064;-80
2023/12/22 03:33:37;;;;;;;6.38;1.15;;;24.10;47.50;;;;;;5014556;28;20026;-84
2023/12/22 03:36:05;;;;;;;5.82;1.33;;;24.10;46.70;;;;;;5014127;28;20041;-85
2023/12/22 03:38:34;;;;;;;6.53;1.00;;;24.10;46.50;;;;;;5014460;28;20389;-84
2023/12/22 03:41:01;;;;;;;4.40;1.00;;;24.10;47.60;;;;;;5014210;28;20378;-84
2023/12/22 03:43:31;;;;;;;7.00;0.90;;;24.10;46.90;;;;;;5016563;28;20104;-81
2023/12/22 03:46:02;;;;;;;4.07;0.90;;;24.00;45.10;;;;;;5003050;28;20026;-83
2023/12/22 03:48:30;;;;;;;5.72;1.55;;;24.10;46.30;;;;;;5012395;28;20053;-84
2023/12/22 03:50:57;;;;;;;3.25;1.10;;;24.20;46.60;;;;;;5013480;28;20022;-80
2023/12/22 03:53:25;;;;;;;4.15;1.10;;;24.30;46.20;;;;;;5025412;28;20541;-86
2023/12/22 03:55:53;;;;;;;5.18;1.10;;;24.30;45.60;;;;;;5007683;28;20030;-81
2023/12/22 03:58:20;;;;;;;3.83;0.95;;;24.20;45.40;;;;;;5016086;28;20022;-82
2023/12/22 04:00:48;;;;;;;6.32;1.05;;;24.20;45.70;;;;;;5014060;28;20112;-79
2023/12/22 04:03:16;;;;;;;5.45;1.20;;;24.10;46.60;;;;;;5014043;28;20470;-80
2023/12/22 04:05:43;;;;;;;5.10;1.30;;;24.10;46.20;;;;;;5013704;28;20495;-83
2023/12/22 04:08:11;;;;;;;6.53;1.00;;;24.00;46.80;;;;;;5013824;28;20044;-85
2023/12/22 04:10:38;;;;;;;6.78;1.13;;;24.10;47.20;;;;;;5014005;28;20075;-83
2023/12/22 04:13:07;;;;;;;5.72;1.10;;;24.10;46.50;;;;;;5014195;28;20026;-84
2023/12/22 04:15:34;;;;;;;4.72;1.40;;;24.00;46.70;;;;;;5016446;28;20028;-80
2023/12/22 04:18:04;;;;;;;2.80;1.10;;;24.00;47.40;;;;;;5003129;28;20037;-83
2023/12/22 04:20:32;;;;;;;3.85;1.10;;;24.00;47.20;;;;;;5014120;28;20052;-84
2023/12/22 04:22:59;;;;;;;3.15;1.00;;;24.20;47.60;;;;;;5013057;28;20026;-79
2023/12/22 04:25:27;;;;;;;7.82;1.17;;;24.10;47.70;;;;;;5029021;28;20382;-84
2023/12/22 04:27:54;;;;;;;7.93;1.55;;;24.10;48.60;;;;;;5013802;28;20029;-79
2023/12/22 04:30:21;;;;;;;4.07;1.15;;;24.20;49.80;;;;;;5013852;28;20133;-84
2023/12/22 04:32:49;;;;;;;3.92;1.17;;;24.20;50.40;;;;;;5013747;28;20036;-85
2023/12/22 04:35:16;;;;;;;5.47;1.27;;;24.30;50.50;;;;;;5013773;28;20512;-85
2023/12/22 04:37:44;;;;;;;5.57;1.15;;;24.30;48.90;;;;;;5012500;28;20117;-84
2023/12/22 04:40:11;;;;;;;4.75;1.35;;;24.20;49.80;;;;;;5013636;28;20051;-85
2023/12/22 04:42:39;;;;;;;5.82;1.33;;;24.30;50.40;;;;;;5012123;28;20084;-85
2023/12/22 04:45:06;;;;;;;7.53;1.40;;;24.20;51.10;;;;;;5013313;28;20064;-83
2023/12/22 04:47:34;;;;;;;5.78;1.30;;;24.30;51.40;;;;;;5013358;28;20022;-81
2023/12/22 04:50:01;;;;;;;7.70;1.48;;;24.30;51.70;;;;;;5007974;28;20076;-80
2023/12/22 04:52:29;;;;;;;9.10;1.70;;;24.40;50.80;;;;;;5005414;28;20029;-79
2023/12/22 04:54:56;;;;;;;3.90;1.42;;;24.40;51.40;;;;;;5004521;28;20029;-82
2023/12/22 04:57:24;;;;;;;11.75;1.60;;;24.50;51.90;;;;;;5013372;28;20033;-83
2023/12/22 04:59:51;;;;;;;10.90;1.92;;;24.60;52.60;;;;;;5019019;28;20095;-87
2023/12/22 05:02:19;;;;;;;6.93;1.58;;;24.70;52.50;;;;;;5017813;28;20030;-86
2023/12/22 05:04:47;;;;;;;9.07;1.55;;;24.70;52.30;;;;;;5011697;28;20401;-84
2023/12/22 05:07:14;;;;;;;6.50;1.50;;;24.70;52.30;;;;;;5017343;28;20033;-84
2023/12/22 05:09:44;;;;;;;5.28;1.60;;;24.80;52.30;;;;;;5012820;28;20061;-77
2023/12/22 05:12:12;;;;;;;6.75;1.63;;;24.80;50.90;;;;;;5016102;28;20025;-86
2023/12/22 05:14:39;;;;;;;7.28;1.45;;;24.70;50.80;;;;;;5033522;28;20048;-86
2023/12/22 05:17:07;;;;;;;7.55;1.85;;;24.70;51.40;;;;;;5031124;28;20079;-80
2023/12/22 05:19:34;;;;;;;5.82;1.42;;;24.80;51.50;;;;;;5023847;28;20037;-87
2023/12/22 05:22:01;;;;;;;6.50;1.65;;;24.70;50.00;;;;;;5013472;28;20026;-87
2023/12/22 05:24:30;;;;;;;8.27;1.88;;;24.70;51.00;;;;;;5011989;28;20077;-86
2023/12/22 05:26:57;;;;;;;5.93;1.30;;;24.70;51.30;;;;;;5014277;28;20057;-85
2023/12/22 05:29:24;;;;;;;9.63;1.30;;;24.70;50.30;;;;;;5012039;28;20328;-82
2023/12/22 05:31:52;;;;;;;8.32;1.58;;;24.70;49.30;;;;;;5012500;28;20541;-81
2023/12/22 05:34:19;;;;;;;4.47;1.40;;;24.70;49.60;;;;;;5014297;28;20056;-82
2023/12/22 05:36:46;;;;;;;8.00;1.58;;;24.70;50.00;;;;;;5012304;28;20033;-84
2023/12/22 05:39:14;;;;;;;8.75;1.58;;;24.70;50.90;;;;;;5015338;28;20565;-86
2023/12/22 05:41:44;;;;;;;6.95;1.40;;;24.70;49.80;;;;;;5014346;28;20508;-82
2023/12/22 05:44:12;;;;;;;9.23;1.70;;;24.70;50.00;;;;;;5016660;28;20026;-92
2023/12/22 05:46:43;;;;;;;7.70;1.75;;;24.70;51.00;;;;;;5016043;28;20034;-93
2023/12/22 05:49:10;;;;;;;10.10;1.73;;;24.80;51.60;;;;;;5026834;28;20029;-81
2023/12/22 05:51:41;;;;;;;9.15;1.80;;;24.90;51.70;;;;;;5016423;28;20030;-91
2023/12/22 05:54:10;;;;;;;6.20;1.58;;;24.90;51.50;;;;;;5021989;28;20071;-85
2023/12/22 05:56:39;;;;;;;8.10;1.52;;;24.80;50.30;;;;;;5030013;28;20025;-84
2023/12/22 05:59:06;;;;;;;7.32;1.58;;;24.80;50.10;;;;;;5022644;28;20436;-87
2023/12/22 06:01:37;;;;;;;9.50;1.90;;;24.80;49.70;;;;;;5029305;28;20404;-88
2023/12/22 06:04:05;;;;;;;5.18;1.17;;;24.80;49.20;;;;;;5006607;28;20042;-84
2023/12/22 06:06:33;;;;;;;5.78;1.27;;;24.80;50.10;;;;;;5017567;28;20508;-79
2023/12/22 06:09:02;;;;;;;8.18;1.48;;;24.80;50.60;;;;;;5017344;28;20080;-87
2023/12/22 06:11:30;;;;;;;7.50;1.40;;;24.80;50.80;;;;;;5017848;28;20026;-85
2023/12/22 06:13:59;;;;;;;6.65;1.42;;;24.80;51.20;;;;;;5017964;28;20022;-76
2023/12/22 06:16:29;;;;;;;7.63;1.50;;;24.90;51.60;;;;;;5019769;28;20128;-82
2023/12/22 06:18:57;;;;;;;8.25;1.48;;;24.90;52.10;;;;;;5018553;28;20091;-81
2023/12/22 06:21:25;;;;;;;7.85;1.40;;;24.90;51.30;;;;;;5016711;28;20018;-91
2023/12/22 06:23:53;;;;;;;11.48;1.70;;;24.90;51.90;;;;;;5016537;28;20026;-89
2023/12/22 06:26:21;;;;;;;7.63;1.33;;;25.00;51.80;;;;;;5016473;28;20017;-83
2023/12/22 06:28:48;;;;;;;8.10;1.42;;;25.00;51.80;;;;;;5019876;28;20428;-92
2023/12/22 06:31:21;;;;;;;8.07;1.50;;;25.00;51.90;;;;;;5021737;28;20018;-83
2023/12/22 06:33:49;;;;;;;7.18;1.55;;;24.90;51.10;;;;;;5015049;28;20381;-90
2023/12/22 06:36:24;;;;;;;7.63;1.60;;;24.80;50.80;;;;;;5015593;28;20029;-83
2023/12/22 06:38:55;;;;;;;5.82;1.45;;;24.80;51.40;;;;;;5014272;28;20069;-92
2023/12/22 06:41:28;;;;;;;5.63;1.80;;;24.80;51.50;;;;;;5011729;28;20131;-77
2023/12/22 06:43:56;;;;;;;5.60;1.38;;;24.70;51.60;;;;;;5015500;28;20038;-80
2023/12/22 06:46:28;;;;;;;5.75;1.48;;;24.70;50.90;;;;;;5027609;28;20021;-78
2023/12/22 06:49:01;;;;;;;6.15;1.20;;;24.70;50.60;;;;;;5016582;28;20026;-89
2023/12/22 06:51:31;;;;;;;8.27;1.30;;;24.70;49.70;;;;;;5031599;28;20032;-91
2023/12/22 06:54:02;;;;;;;3.60;1.15;;;24.60;50.80;;;;;;5019699;28;20026;-92
2023/12/22 06:56:36;;;;;;;6.63;1.55;;;24.70;51.70;;;;;;5023952;28;20033;-78
2023/12/22 06:59:04;;;;;;;6.05;1.35;;;24.70;51.50;;;;;;5022008;28;20033;-82
2023/12/22 07:01:34;;;;;;;7.97;1.75;;;24.70;51.60;;;;;;5013396;28;20029;-95
2023/12/22 07:04:06;;;;;;;4.63;1.20;;;24.70;51.60;;;;;;5015426;28;20030;-86
2023/12/22 07:06:34;;;;;;;6.47;1.58;;;24.70;52.10;;;;;;5015903;28;20061;-83
2023/12/22 07:09:16;;;;;;;5.90;1.60;;;24.70;51.60;;;;;;5016593;28;20030;-93
2023/12/22 07:11:58;;;;;;;7.50;1.65;;;24.70;50.90;;;;;;5015715;28;20061;-88
2023/12/22 07:14:28;;;;;;;5.80;1.30;;;24.60;50.60;;;;;;5020710;28;20029;-87
2023/12/22 07:16:57;;;;;;;7.05;1.15;;;24.70;51.00;;;;;;5002801;28;20049;-87
2023/12/22 07:19:26;;;;;;;5.07;1.20;;;24.60;50.30;;;;;;5007656;28;20033;-86
2023/12/22 07:21:59;;;;;;;8.38;1.45;;;24.60;50.30;;;;;;5015202;28;20046;-88
2023/12/22 07:24:34;;;;;;;5.38;1.20;;;24.50;50.60;;;;;;5022858;28;20029;-95
2023/12/22 07:27:09;;;;;;;5.22;1.52;;;24.40;51.20;;;;;;5025643;28;20025;-92
2023/12/22 07:29:37;;;;;;;7.85;1.40;;;24.40;51.80;;;;;;5018024;28;20030;-83
2023/12/22 07:32:07;;;;;;;5.45;1.30;;;24.50;52.20;;;;;;5011312;28;20025;-91
2023/12/22 07:34:36;;;;;;;4.65;1.25;;;24.50;51.90;;;;;;5034698;28;20032;-90
2023/12/22 07:37:04;;;;;;;6.15;1.48;;;24.50;51.40;;;;;;5035470;28;20381;-94
2023/12/22 07:39:33;;;;;;;5.00;0.90;;;24.60;52.70;;;;;;5020019;28;20030;-87
2023/12/22 07:42:02;;;;;;;10.63;1.55;;;24.60;53.50;;;;;;4999074;28;20037;-88
2023/12/22 07:44:31;;;;;;;8.20;1.33;;;24.60;53.10;;;;;;5015207;28;20030;-83
2023/12/22 07:47:01;;;;;;;6.00;1.40;;;24.60;53.20;;;;;;5014415;28;20081;-92
2023/12/22 07:49:30;;;;;;;10.40;1.75;;;24.60;53.20;;;;;;5013478;28;20049;-82
2023/12/22 07:51:58;;;;;;;8.27;1.50;;;24.60;53.10;;;;;;5010908;28;20030;-90
2023/12/22 07:54:26;;;;;;;8.32;1.90;;;24.50;53.20;;;;;;5012036;28;20029;-79
2023/12/22 07:56:54;;;;;;;8.18;1.70;;;24.60;53.20;;;;;;5018952;28;20017;-77
2023/12/22 07:59:22;;;;;;;5.90;1.45;;;24.60;54.40;;;;;;5028428;28;20481;-92
2023/12/22 08:01:50;;;;;;;7.20;1.70;;;24.60;54.50;;;;;;5010645;28;20022;-86
2023/12/22 08:04:17;;;;;;;7.40;1.50;;;24.60;54.70;;;;;;5000235;28;20053;-85
2023/12/22 08:06:45;;;;;;;6.18;1.50;;;24.50;54.20;;;;;;5002800;28;20050;-87
2023/12/22 08:09:13;;;;;;;8.65;1.80;;;24.40;54.20;;;;;;5016465;28;20036;-83
2023/12/22 08:11:40;;;;;;;8.07;2.10;;;24.40;54.40;;;;;;5005415;28;20022;-78
2023/12/22 08:14:07;;;;;;;5.55;1.77;;;24.30;54.80;;;;;;5000866;28;20026;-82
2023/12/22 08:16:35;;;;;;;8.15;1.88;;;24.20;55.70;;;;;;5003414;28;20030;-77
2023/12/22 08:19:02;;;;;;;8.35;1.60;;;24.00;56.40;;;;;;5013066;28;20069;-86
2023/12/22 08:21:29;;;;;;;8.23;1.67;;;23.90;57.30;;;;;;5013817;28;20097;-87
2023/12/22 08:23:58;;;;;;;8.98;2.13;;;23.90;57.80;;;;;;5009124;28;20136;-86
2023/12/22 08:26:25;;;;;;;6.85;1.83;;;23.80;57.80;;;;;;4994595;28;20109;-76
2023/12/22 08:28:53;;;;;;;8.45;1.60;;;23.70;58.00;;;;;;4995471;28;20026;-78
2023/12/22 08:31:21;;;;;;;8.93;1.40;;;23.60;58.60;;;;;;5000804;28;20113;-83
2023/12/22 08:33:48;;;;;;;8.90;1.92;;;23.60;58.60;;;;;;5004794;28;20373;-78
2023/12/22 08:36:16;;;;;;;9.75;1.63;;;23.50;58.70;;;;;;5013834;28;20535;-83
2023/12/22 08:38:43;;;;;;;8.85;1.98;;;23.40;58.70;;;;;;5022026;28;20079;-79
2023/12/22 08:41:11;;;;;;;7.85;1.55;;;23.30;58.90;;;;;;5016313;28;20029;-81
2023/12/22 08:43:39;;;;;;;8.82;1.77;;;23.30;59.00;;;;;;5013261;28;20033;-78
2023/12/22 08:46:11;;;;;;;8.82;1.95;;;23.30;59.10;;;;;;5012782;28;20026;-79
2023/12/22 08:48:39;;;;;;;8.98;1.63;;;23.20;59.20;;;;;;5008021;28;20018;-89
2023/12/22 08:51:06;;;;;;;8.32;1.90;;;23.20;59.10;;;;;;4997731;28;20026;-77
2023/12/22 08:53:36;;;;;;;9.38;2.00;;;23.10;59.10;;;;;;5012013;28;20116;-81
2023/12/22 08:56:05;;;;;;;9.25;2.10;;;23.00;59.30;;;;;;5010805;28;20053;-86
2023/12/22 08:58:33;;;;;;;6.70;1.45;;;23.00;59.50;;;;;;5010253;28;20033;-79
2023/12/22 09:01:07;;;;;;;7.85;1.65;;;22.90;59.80;;;;;;5013149;28;20037;-87
2023/12/22 09:03:35;;;;;;;10.45;1.50;;;22.90;59.80;;;;;;5011663;28;20049;-82
2023/12/22 09:06:05;;;;;;;12.00;2.28;;;22.80;59.90;;;;;;5012645;28;20042;-81
2023/12/22 09:08:32;;;;;;;8.70;2.15;;;22.80;60.30;;;;;;5008609;28;20028;-83
2023/12/22 09:11:00;;;;;;;10.32;1.83;;;22.80;60.60;;;;;;4999841;28;20462;-88
2023/12/22 09:13:28;;;;;;;12.02;2.05;;;22.80;60.80;;;;;;4994114;28;20390;-78
2023/12/22 09:16:01;;;;;;;7.28;2.05;;;22.80;60.90;;;;;;5008661;28;20023;-82
2023/12/22 09:18:32;;;;;;;5.25;1.58;;;22.70;61.10;;;;;;5005969;28;20022;-80
2023/12/22 09:21:02;;;;;;;10.85;2.03;;;22.70;61.30;;;;;;5010415;28;20033;-77
2023/12/22 09:23:31;;;;;;;10.65;2.05;;;22.70;61.50;;;;;;5009333;28;20022;-89
2023/12/22 09:26:07;;;;;;;6.03;1.65;;;22.70;61.60;;;;;;4995760;28;20030;-86
2023/12/22 09:28:34;;;;;;;;;;;22.60;61.70;;;;;;5004548;28;20049;-78
2023/12/22 09:31:03;;;;;;;8.52;1.83;;;22.50;62.00;;;;;;5026879;28;19916;-91
2023/12/22 09:33:33;;;;;;;9.18;1.80;;;22.50;62.10;;;;;;4994205;28;20379;-89
2023/12/22 09:36:01;;;;;;;9.18;1.95;;;22.50;62.40;;;;;;5003559;28;20026;-85
2023/12/22 09:38:30;;;;;;;11.32;1.80;;;22.40;62.40;;;;;;4998275;28;20035;-89
2023/12/22 09:40:58;;;;;;;9.10;2.17;;;22.30;62.70;;;;;;5018444;28;20029;-86
2023/12/22 09:43:32;;;;;;;7.43;1.60;;;22.30;63.00;;;;;;5013353;28;20026;-86
2023/12/22 09:46:00;;;;;;;8.40;1.70;;;22.30;63.10;;;;;;5026645;28;20029;-87
2023/12/22 09:48:29;;;;;;;10.15;1.33;;;22.20;63.50;;;;;;5013641;28;20022;-81
2023/12/22 09:50:58;;;;;;;8.07;1.73;;;22.20;63.50;;;;;;5002122;28;20038;-82
2023/12/22 09:53:31;;;;;;;9.88;1.75;;;22.20;63.30;;;;;;4997797;28;20440;-92
2023/12/22 09:56:01;;;;;;;7.10;1.42;;;22.20;63.50;;;;;;5007112;28;20022;-92
2023/12/22 09:58:28;;;;;;;8.00;2.20;;;22.20;63.70;;;;;;5010211;28;20041;-83
2023/12/22 10:01:02;;;;;;;10.48;2.13;;;22.20;64.00;;;;;;4996004;28;20045;-88
2023/12/22 10:03:30;;;;;;;7.70;1.70;;;22.20;64.60;;;;;;5011166;28;20018;-76
2023/12/22 10:05:58;;;;;;;9.80;1.92;;;22.10;64.60;;;;;;5029786;28;20034;-85
2023/12/22 10:08:27;;;;;;;10.25;1.80;;;22.10;65.40;;;;;;5003197;28;20536;-78
2023/12/22 10:10:55;;;;;;;15.50;2.30;;;22.00;65.40;;;;;;5011941;28;20049;-78
2023/12/22 10:13:23;;;;;;;8.38;1.90;;;22.00;65.80;;;;;;5012566;28;20026;-82
2023/12/22 10:15:50;;;;;;;7.75;1.50;;;22.00;65.80;;;;;;5011937;28;20125;-82
2023/12/22 10:18:18;;;;;;;8.52;1.80;;;22.00;66.20;;;;;;5015008;28;20449;-78
2023/12/22 10:20:46;;;;;;;10.70;1.60;;;22.00;66.30;;;;;;5013366;28;20488;-77
2023/12/22 10:23:13;;;;;;;6.95;1.60;;;22.00;66.40;;;;;;5015021;28;20060;-80
2023/12/22 10:25:41;;;;;;;7.97;1.75;;;21.90;66.50;;;;;;5014163;28;20034;-78
2023/12/22 10:28:13;;;;;;;10.40;1.75;;;21.90;66.50;;;;;;5023014;28;20104;-77
2023/12/22 10:30:41;;;;;;;3.85;1.25;;;22.00;66.90;;;;;;5018042;28;20030;-80
2023/12/22 10:33:08;;;;;;;9.50;1.98;;;21.90;66.80;;;;;;4996822;28;20080;-78
2023/12/22 10:35:37;;;;;;;9.23;1.83;;;22.00;67.00;;;;;;5012424;28;20033;-80
2023/12/22 10:38:05;;;;;;;9.48;1.77;;;21.90;66.90;;;;;;4999758;28;20061;-81
2023/12/22 10:40:33;;;;;;;15.48;2.35;;;21.90;67.00;;;;;;4996255;28;20038;-77
2023/12/22 10:43:00;;;;;;;11.82;2.20;;;21.90;67.30;;;;;;4996272;28;20022;-77
2023/12/22 10:45:36;;;;;;;10.88;1.67;;;21.90;67.60;;;;;;5007428;28;20044;-81
2023/12/22 10:48:04;;;;;;;3.42;1.10;;;21.90;67.50;;;;;;5003069;28;20033;-87
2023/12/22 10:50:32;;;;;;;9.27;1.35;;;21.80;67.40;;;;;;5014474;28;20114;-88
2023/12/22 10:53:01;;;;;;;9.90;1.60;;;21.80;67.40;;;;;;5026782;28;20085;-85
2023/12/22 10:55:28;;;;;;;14.25;1.73;;;21.80;67.50;;;;;;5005474;28;20017;-82
2023/12/22 10:57:56;;;;;;;13.80;2.40;;;21.80;67.50;;;;;;5018514;28;20030;-79
2023/12/22 11:00:23;;;;;;;9.23;1.90;;;21.80;67.80;;;;;;4996540;28;20042;-84
2023/12/22 11:02:59;;;;;;;9.23;1.67;;;21.80;67.80;;;;;;4997904;28;20029;-83
2023/12/22 11:05:28;;;;;;;12.80;1.85;;;21.80;67.60;;;;;;5014387;28;20042;-78
2023/12/22 11:08:01;;;;;;;9.35;1.85;;;21.80;67.80;;;;;;5015703;28;20030;-80
2023/12/22 11:10:31;;;;;;;10.10;1.70;;;21.70;67.90;;;;;;5008769;28;20046;-86
2023/12/22 11:12:59;;;;;;;11.90;1.58;;;21.70;67.90;;;;;;4999781;28;20037;-77
2023/12/22 11:15:28;;;;;;;9.68;2.25;;;21.70;67.70;;;;;;5008381;28;20022;-81
2023/12/22 11:18:00;;;;;;;8.77;2.10;;;21.70;67.90;;;;;;4995995;28;20509;-80
2023/12/22 11:20:32;;;;;;;12.20;1.95;;;21.60;68.20;;;;;;5022961;28;20037;-84
2023/12/22 11:23:02;;;;;;;5.07;1.40;;;21.70;68.20;;;;;;5002225;28;20029;-85
2023/12/22 11:25:32;;;;;;;12.90;1.90;;;21.60;68.20;;;;;;5018970;28;20381;-89
2023/12/22 11:28:06;;;;;;;7.30;2.15;;;21.60;68.40;;;;;;5003402;28;20042;-87
2023/12/22 11:30:36;;;;;;;8.00;1.83;;;21.60;68.30;;;;;;5002923;28;20030;-82
2023/12/22 11:33:05;;;;;;;10.15;1.50;;;21.60;68.30;;;;;;5014201;28;20025;-84
2023/12/22 11:35:35;;;;;;;10.23;2.08;;;21.60;68.30;;;;;;5016713;28;20025;-81
2023/12/22 11:38:03;;;;;;;9.52;1.67;;;21.60;68.30;;;;;;5019542;28;20030;-91
2023/12/22 11:40:31;;;;;;;6.50;1.58;;;21.60;68.40;;;;;;4999011;28;20038;-88
2023/12/22 11:43:02;;;;;;;14.55;2.10;;;21.60;68.40;;;;;;5015750;28;20022;-81
2023/12/22 11:45:32;;;;;;;8.27;1.80;;;21.60;68.70;;;;;;5021125;28;20473;-84
2023/12/22 11:48:10;;;;;;;8.38;1.63;;;21.60;68.80;;;;;;5007996;28;20030;-88
2023/12/22 11:50:38;;;;;;;7.53;1.65;;;21.60;68.90;;;;;;5027861;28;20025;-77
2023/12/22 11:53:26;;;;;;;9.73;2.00;;;21.50;68.90;;;;;;5013277;28;20087;-84
2023/12/22 11:56:05;;;;;;;12.32;1.80;;;21.50;69.00;;;;;;4999911;28;20018;-81
2023/12/22 11:58:52;;;;;;;10.43;1.98;;;21.50;69.00;;;;;;5013280;28;20029;-81
2023/12/22 12:01:24;;;;;;;9.55;1.80;;;21.50;69.20;;;;;;5014092;28;20046;-81
2023/12/22 12:03:59;;;;;;;7.72;1.30;;;21.50;69.20;;;;;;5014187;28;20022;-78
2023/12/22 12:06:32;;;;;;;7.15;1.50;;;21.50;69.20;;;;;;5016147;28;20062;-78
2023/12/22 12:09:03;;;;;;;7.32;1.70;;;21.50;69.40;;;;;;5015849;28;20054;-78
2023/12/22 12:11:54;;;;;;;8.55;1.90;;;21.50;69.50;;;;;;5010398;28;20404;-85
2023/12/22 12:14:33;;;;;;;6.78;1.50;;;21.50;69.60;;;;;;5003611;28;20033;-78
2023/12/22 12:17:08;;;;;;;8.80;1.67;;;21.50;69.60;;;;;;5005121;28;20030;-81
2023/12/22 12:19:37;;;;;;;;;;;21.50;69.60;;;;;;5002309;28;20112;-77
2023/12/22 12:22:05;;;;;;;12.85;1.92;;;21.40;69.50;;;;;;5016102;28;19990;-77
2023/12/22 12:24:32;;;;;;;7.97;1.48;;;21.40;69.40;;;;;;5014758;28;20034;-77
2023/12/22 12:27:00;;;;;;;9.13;1.52;;;21.40;69.30;;;;;;5019897;28;20488;-77
2023/12/22 12:29:28;;;;;;;7.90;1.55;;;21.40;69.30;;;;;;5016393;28;20018;-77
2023/12/22 12:32:06;;;;;;;9.38;1.42;;;21.40;69.30;;;;;;5017682;28;20028;-76
2023/12/22 12:34:34;;;;;;;9.57;1.50;;;21.40;69.40;;;;;;5019664;28;20044;-76
2023/12/22 12:37:03;;;;;;;12.73;1.77;;;21.40;69.40;;;;;;5020883;28;20026;-77
2023/12/22 12:39:36;;;;;;;10.57;1.60;;;21.40;69.70;;;;;;5025780;28;20041;-76
2023/12/22 12:42:08;;;;;;;6.70;1.50;;;21.40;69.70;;;;;;5015402;28;20104;-76
2023/12/22 12:44:37;;;;;;;5.53;1.10;;;21.40;69.80;;;;;;5015480;28;20029;-77
2023/12/22 12:47:17;;;;;;;3.88;1.50;;;21.30;69.80;;;;;;5024963;28;20037;-77
2023/12/22 12:49:45;;;;;;;8.68;1.50;;;21.30;69.80;;;;;;5012299;28;20026;-76
2023/12/22 12:52:17;;;;;;;7.88;1.58;;;21.30;69.90;;;;;;5022496;28;20025;-76
2023/12/22 12:54:44;;;;;;;8.75;1.73;;;21.30;69.90;;;;;;5017198;28;20041;-76